MAS2PL WMKK-WSSS
Flight info
| Callsign | MAS2PL |
|---|---|
| Flight time | 0h 40m |
| Altitude | 27000 |
| Route | RUSBU1D RUSBU Y511 TOPOR A464 ARAMA DCT TEBUN TEBUN1A |
| Aircraft | B738/M-SDE2E3FGHIRWXY/LB1 |
Departure
| Time | 2026-05-06 17:56 |
|---|---|
| Airport | Kuala Lumpur International Airport (WMKK) |
Arrival
| Time | 2026-05-06 18:37 |
|---|---|
| Airport | Singapore Changi Airport (WSSS) |
| Time | Latitude | Longitude | Altitude | Speed | Heading |
|---|---|---|---|---|---|
| 2026-05-06 17:21 | 2.75505 | 101.70791 | 72 ft | 0 kts | 146° |
| 2026-05-06 17:44 | 2.75511 | 101.70787 | 72 ft | 4 kts | 142° |
| 2026-05-06 17:44 | 2.75528 | 101.70768 | 67 ft | 4 kts | 106° |
| 2026-05-06 17:44 | 2.75527 | 101.70745 | 69 ft | 3 kts | 58° |
| 2026-05-06 17:45 | 2.75525 | 101.70742 | 69 ft | 1 kts | 56° |
| 2026-05-06 17:48 | 2.75526 | 101.70743 | 69 ft | 1 kts | 56° |
| 2026-05-06 17:48 | 2.75554 | 101.70785 | 63 ft | 13 kts | 56° |
| 2026-05-06 17:48 | 2.75610 | 101.70868 | 67 ft | 14 kts | 56° |
| 2026-05-06 17:48 | 2.75664 | 101.70949 | 67 ft | 14 kts | 56° |
| 2026-05-06 17:49 | 2.75697 | 101.70998 | 65 ft | 0 kts | 56° |
| 2026-05-06 17:50 | 2.75713 | 101.71034 | 72 ft | 9 kts | 86° |
| 2026-05-06 17:50 | 2.75677 | 101.71089 | 70 ft | 11 kts | 143° |
| 2026-05-06 17:50 | 2.75607 | 101.71136 | 72 ft | 13 kts | 145° |
| 2026-05-06 17:50 | 2.75524 | 101.71192 | 70 ft | 15 kts | 148° |
| 2026-05-06 17:51 | 2.75428 | 101.71255 | 69 ft | 17 kts | 146° |
| 2026-05-06 17:51 | 2.75339 | 101.71316 | 66 ft | 13 kts | 138° |
| 2026-05-06 17:51 | 2.75352 | 101.71404 | 69 ft | 15 kts | 57° |
| 2026-05-06 17:51 | 2.75400 | 101.71477 | 69 ft | 12 kts | 56° |
| 2026-05-06 17:52 | 2.75435 | 101.71530 | 67 ft | 14 kts | 60° |
| 2026-05-06 17:52 | 2.75386 | 101.71609 | 67 ft | 16 kts | 144° |
| 2026-05-06 17:52 | 2.75291 | 101.71676 | 71 ft | 18 kts | 148° |
| 2026-05-06 17:52 | 2.75184 | 101.71743 | 70 ft | 19 kts | 147° |
| 2026-05-06 17:53 | 2.75072 | 101.71818 | 72 ft | 20 kts | 146° |
| 2026-05-06 17:53 | 2.74956 | 101.71897 | 74 ft | 20 kts | 146° |
| 2026-05-06 17:53 | 2.74844 | 101.71972 | 77 ft | 20 kts | 146° |
| 2026-05-06 17:53 | 2.74725 | 101.72052 | 90 ft | 18 kts | 146° |
| 2026-05-06 17:54 | 2.74689 | 101.72141 | 73 ft | 16 kts | 60° |
| 2026-05-06 17:54 | 2.74700 | 101.72157 | 75 ft | 1 kts | 56° |
| 2026-05-06 17:54 | 2.74709 | 101.72170 | 72 ft | 3 kts | 56° |
| 2026-05-06 17:54 | 2.74729 | 101.72200 | 78 ft | 9 kts | 56° |
| 2026-05-06 17:55 | 2.74812 | 101.72222 | 75 ft | 17 kts | 330° |
| 2026-05-06 17:55 | 2.74927 | 101.72145 | 74 ft | 36 kts | 326° |
| 2026-05-06 17:55 | 2.75341 | 101.71868 | 73 ft | 105 kts | 326° |
| 2026-05-06 17:55 | 2.76101 | 101.71358 | 74 ft | 156 kts | 327° |
| 2026-05-06 17:56 | 2.77073 | 101.70699 | 412 ft | 175 kts | 325° |
| 2026-05-06 17:56 | 2.78033 | 101.69960 | 1072 ft | 176 kts | 315° |
| 2026-05-06 17:56 | 2.79001 | 101.69169 | 1630 ft | 182 kts | 330° |
| 2026-05-06 17:56 | 2.80202 | 101.68612 | 1997 ft | 204 kts | 344° |
| 2026-05-06 17:57 | 2.81647 | 101.68181 | 2231 ft | 227 kts | 345° |
| 2026-05-06 17:57 | 2.83218 | 101.67690 | 2461 ft | 245 kts | 343° |
| 2026-05-06 17:57 | 2.84889 | 101.67126 | 2695 ft | 264 kts | 342° |
| 2026-05-06 17:57 | 2.86660 | 101.66503 | 3183 ft | 275 kts | 342° |
| 2026-05-06 17:58 | 2.88474 | 101.65885 | 3978 ft | 274 kts | 348° |
| 2026-05-06 17:58 | 2.90352 | 101.65900 | 4770 ft | 272 kts | 18° |
| 2026-05-06 17:58 | 2.91959 | 101.66807 | 5502 ft | 271 kts | 44° |
| 2026-05-06 17:58 | 2.93072 | 101.68326 | 6207 ft | 275 kts | 64° |
| 2026-05-06 17:59 | 2.93875 | 101.70076 | 6888 ft | 279 kts | 66° |
| 2026-05-06 17:59 | 2.94637 | 101.71875 | 7615 ft | 282 kts | 72° |
| 2026-05-06 17:59 | 2.94813 | 101.73823 | 8331 ft | 285 kts | 100° |
| 2026-05-06 17:59 | 2.94101 | 101.75665 | 9120 ft | 287 kts | 123° |
| 2026-05-06 18:00 | 2.92783 | 101.77164 | 9896 ft | 290 kts | 135° |
| 2026-05-06 18:00 | 2.91293 | 101.78574 | 10441 ft | 303 kts | 136° |
| 2026-05-06 18:00 | 2.89680 | 101.80058 | 10606 ft | 327 kts | 137° |
| 2026-05-06 18:00 | 2.87960 | 101.81636 | 11001 ft | 341 kts | 136° |
| 2026-05-06 18:01 | 2.86203 | 101.83258 | 11643 ft | 345 kts | 136° |
| 2026-05-06 18:01 | 2.84434 | 101.84901 | 12370 ft | 348 kts | 136° |
| 2026-05-06 18:01 | 2.82658 | 101.86557 | 13094 ft | 351 kts | 135° |
| 2026-05-06 18:01 | 2.80868 | 101.88234 | 13784 ft | 355 kts | 135° |
| 2026-05-06 18:02 | 2.79060 | 101.89931 | 14435 ft | 358 kts | 135° |
| 2026-05-06 18:02 | 2.77231 | 101.91650 | 15113 ft | 361 kts | 135° |
| 2026-05-06 18:02 | 2.75388 | 101.93381 | 15789 ft | 364 kts | 135° |
| 2026-05-06 18:02 | 2.73536 | 101.95123 | 16436 ft | 368 kts | 135° |
| 2026-05-06 18:03 | 2.71659 | 101.96887 | 17077 ft | 372 kts | 135° |
| 2026-05-06 18:03 | 2.69786 | 101.98648 | 17710 ft | 375 kts | 135° |
| 2026-05-06 18:03 | 2.67850 | 102.00468 | 18303 ft | 379 kts | 135° |
| 2026-05-06 18:03 | 2.65922 | 102.02281 | 18832 ft | 382 kts | 135° |
| 2026-05-06 18:04 | 2.63976 | 102.04109 | 19358 ft | 385 kts | 135° |
| 2026-05-06 18:04 | 2.62044 | 102.05925 | 19896 ft | 388 kts | 135° |
| 2026-05-06 18:04 | 2.60073 | 102.07777 | 20419 ft | 391 kts | 135° |
| 2026-05-06 18:04 | 2.58067 | 102.09636 | 20902 ft | 395 kts | 137° |
| 2026-05-06 18:05 | 2.55911 | 102.11370 | 21392 ft | 399 kts | 141° |
| 2026-05-06 18:05 | 2.53669 | 102.13027 | 21895 ft | 402 kts | 142° |
| 2026-05-06 18:05 | 2.51390 | 102.14671 | 22389 ft | 405 kts | 142° |
| 2026-05-06 18:05 | 2.49100 | 102.16327 | 22854 ft | 408 kts | 142° |
| 2026-05-06 18:06 | 2.46796 | 102.18008 | 23313 ft | 411 kts | 142° |
| 2026-05-06 18:06 | 2.44485 | 102.19711 | 23730 ft | 414 kts | 142° |
| 2026-05-06 18:06 | 2.42160 | 102.21436 | 24112 ft | 417 kts | 142° |
| 2026-05-06 18:06 | 2.39829 | 102.23172 | 24494 ft | 419 kts | 142° |
| 2026-05-06 18:07 | 2.37484 | 102.24923 | 24879 ft | 421 kts | 142° |
| 2026-05-06 18:07 | 2.35131 | 102.26681 | 25245 ft | 424 kts | 142° |
| 2026-05-06 18:07 | 2.32760 | 102.28453 | 25608 ft | 426 kts | 142° |
| 2026-05-06 18:07 | 2.30383 | 102.30229 | 25964 ft | 429 kts | 142° |
| 2026-05-06 18:08 | 2.27984 | 102.32021 | 26353 ft | 430 kts | 142° |
| 2026-05-06 18:08 | 2.25586 | 102.33812 | 26760 ft | 431 kts | 142° |
| 2026-05-06 18:08 | 2.23175 | 102.35612 | 27019 ft | 435 kts | 142° |
| 2026-05-06 18:08 | 2.20735 | 102.37435 | 27018 ft | 442 kts | 142° |
| 2026-05-06 18:09 | 2.18251 | 102.39290 | 27033 ft | 446 kts | 142° |
| 2026-05-06 18:09 | 2.15798 | 102.41121 | 27018 ft | 445 kts | 142° |
| 2026-05-06 18:09 | 2.13329 | 102.42964 | 27013 ft | 441 kts | 142° |
| 2026-05-06 18:09 | 2.10877 | 102.44794 | 27012 ft | 439 kts | 142° |
| 2026-05-06 18:10 | 2.08437 | 102.46616 | 27014 ft | 437 kts | 142° |
| 2026-05-06 18:10 | 2.06002 | 102.48434 | 27023 ft | 436 kts | 142° |
| 2026-05-06 18:10 | 2.03568 | 102.50252 | 27024 ft | 437 kts | 141° |
| 2026-05-06 18:10 | 2.01322 | 102.52278 | 26994 ft | 436 kts | 127° |
| 2026-05-06 18:11 | 1.99507 | 102.54698 | 27028 ft | 436 kts | 125° |
| 2026-05-06 18:11 | 1.97713 | 102.57156 | 27028 ft | 437 kts | 125° |
| 2026-05-06 18:11 | 1.95912 | 102.59615 | 27022 ft | 439 kts | 125° |
| 2026-05-06 18:11 | 1.94096 | 102.62072 | 27011 ft | 440 kts | 126° |
| 2026-05-06 18:12 | 1.92267 | 102.64525 | 27015 ft | 441 kts | 126° |
| 2026-05-06 18:12 | 1.90425 | 102.66980 | 27005 ft | 442 kts | 126° |
| 2026-05-06 18:12 | 1.88578 | 102.69434 | 27008 ft | 442 kts | 126° |
| 2026-05-06 18:12 | 1.86727 | 102.71892 | 27012 ft | 442 kts | 126° |
| 2026-05-06 18:13 | 1.84880 | 102.74345 | 27005 ft | 441 kts | 126° |
| 2026-05-06 18:13 | 1.83037 | 102.76792 | 27007 ft | 441 kts | 126° |
| 2026-05-06 18:13 | 1.81192 | 102.79243 | 27014 ft | 440 kts | 126° |
| 2026-05-06 18:13 | 1.79353 | 102.81686 | 27006 ft | 438 kts | 126° |
| 2026-05-06 18:14 | 1.77569 | 102.84056 | 26994 ft | 428 kts | 126° |
| 2026-05-06 18:14 | 1.75770 | 102.86447 | 26994 ft | 418 kts | 126° |
| 2026-05-06 18:14 | 1.74079 | 102.88700 | 26989 ft | 403 kts | 124° |
| 2026-05-06 18:14 | 1.72616 | 102.91017 | 27000 ft | 386 kts | 117° |
| 2026-05-06 18:15 | 1.71380 | 102.93343 | 26988 ft | 372 kts | 116° |
| 2026-05-06 18:15 | 1.70206 | 102.95607 | 26872 ft | 362 kts | 116° |
| 2026-05-06 18:15 | 1.69032 | 102.97866 | 26005 ft | 374 kts | 116° |
| 2026-05-06 18:15 | 1.67773 | 103.00263 | 24838 ft | 395 kts | 117° |
| 2026-05-06 18:16 | 1.66481 | 103.02693 | 24010 ft | 406 kts | 117° |
| 2026-05-06 18:16 | 1.65149 | 103.05183 | 23502 ft | 404 kts | 117° |
| 2026-05-06 18:16 | 1.63828 | 103.07648 | 23086 ft | 398 kts | 117° |
| 2026-05-06 18:16 | 1.62399 | 103.09996 | 22606 ft | 395 kts | 127° |
| 2026-05-06 18:17 | 1.60459 | 103.11932 | 22093 ft | 395 kts | 140° |
| 2026-05-06 18:17 | 1.58153 | 103.13413 | 21589 ft | 395 kts | 153° |
| 2026-05-06 18:17 | 1.55633 | 103.14459 | 21114 ft | 392 kts | 156° |
| 2026-05-06 18:17 | 1.53100 | 103.15439 | 20642 ft | 390 kts | 157° |
| 2026-05-06 18:18 | 1.50575 | 103.16409 | 20154 ft | 388 kts | 157° |
| 2026-05-06 18:18 | 1.48068 | 103.17381 | 19686 ft | 385 kts | 156° |
| 2026-05-06 18:18 | 1.45581 | 103.18357 | 19221 ft | 382 kts | 156° |
| 2026-05-06 18:18 | 1.43115 | 103.19333 | 18797 ft | 380 kts | 156° |
| 2026-05-06 18:19 | 1.40670 | 103.20306 | 18363 ft | 378 kts | 156° |
| 2026-05-06 18:19 | 1.38230 | 103.21279 | 17903 ft | 375 kts | 156° |
| 2026-05-06 18:19 | 1.35812 | 103.22244 | 17422 ft | 373 kts | 156° |
| 2026-05-06 18:19 | 1.33413 | 103.23202 | 16965 ft | 370 kts | 156° |
| 2026-05-06 18:20 | 1.31043 | 103.24147 | 16641 ft | 363 kts | 156° |
| 2026-05-06 18:20 | 1.28739 | 103.25066 | 16556 ft | 350 kts | 156° |
| 2026-05-06 18:20 | 1.26510 | 103.25954 | 16472 ft | 338 kts | 156° |
| 2026-05-06 18:20 | 1.25044 | 103.26540 | 16410 ft | 331 kts | 155° |
| 2026-05-06 18:21 | 1.23000 | 103.27533 | 16197 ft | 323 kts | 149° |
| 2026-05-06 18:21 | 1.21067 | 103.28655 | 15893 ft | 320 kts | 147° |
| 2026-05-06 18:21 | 1.19161 | 103.29803 | 15533 ft | 320 kts | 147° |
| 2026-05-06 18:21 | 1.17254 | 103.30947 | 15191 ft | 319 kts | 147° |
| 2026-05-06 18:22 | 1.15352 | 103.32073 | 14874 ft | 317 kts | 147° |
| 2026-05-06 18:22 | 1.13457 | 103.33183 | 14569 ft | 315 kts | 148° |
| 2026-05-06 18:22 | 1.11573 | 103.34280 | 14243 ft | 314 kts | 147° |
| 2026-05-06 18:22 | 1.09684 | 103.35373 | 13986 ft | 312 kts | 148° |
| 2026-05-06 18:23 | 1.07812 | 103.36455 | 13680 ft | 310 kts | 148° |
| 2026-05-06 18:23 | 1.06494 | 103.37217 | 13435 ft | 310 kts | 148° |
| 2026-05-06 18:23 | 1.04616 | 103.38301 | 13157 ft | 306 kts | 148° |
| 2026-05-06 18:23 | 1.02800 | 103.39349 | 13078 ft | 296 kts | 148° |
| 2026-05-06 18:24 | 1.01050 | 103.40358 | 13001 ft | 286 kts | 148° |
| 2026-05-06 18:24 | 0.99354 | 103.41342 | 12893 ft | 277 kts | 145° |
| 2026-05-06 18:24 | 0.98024 | 103.42661 | 12694 ft | 269 kts | 117° |
| 2026-05-06 18:24 | 0.97388 | 103.44390 | 12476 ft | 264 kts | 99° |
| 2026-05-06 18:25 | 0.97181 | 103.46205 | 12206 ft | 263 kts | 94° |
| 2026-05-06 18:25 | 0.97070 | 103.48009 | 11912 ft | 264 kts | 93° |
| 2026-05-06 18:25 | 0.96955 | 103.49862 | 11641 ft | 263 kts | 94° |
| 2026-05-06 18:25 | 0.96826 | 103.51685 | 11375 ft | 263 kts | 94° |
| 2026-05-06 18:26 | 0.96687 | 103.53504 | 11111 ft | 263 kts | 94° |
| 2026-05-06 18:26 | 0.96547 | 103.55296 | 10855 ft | 262 kts | 94° |
| 2026-05-06 18:26 | 0.96419 | 103.57110 | 10600 ft | 262 kts | 90° |
| 2026-05-06 18:26 | 0.96575 | 103.58907 | 10275 ft | 258 kts | 82° |
| 2026-05-06 18:27 | 0.96861 | 103.60703 | 9851 ft | 259 kts | 81° |
| 2026-05-06 18:27 | 0.97145 | 103.62461 | 9403 ft | 260 kts | 81° |
| 2026-05-06 18:27 | 0.97418 | 103.64247 | 9007 ft | 259 kts | 82° |
| 2026-05-06 18:27 | 0.97675 | 103.66019 | 8622 ft | 257 kts | 82° |
| 2026-05-06 18:28 | 0.97925 | 103.67781 | 8235 ft | 256 kts | 82° |
| 2026-05-06 18:28 | 0.98172 | 103.69545 | 7841 ft | 258 kts | 83° |
| 2026-05-06 18:28 | 0.98453 | 103.71308 | 7552 ft | 258 kts | 75° |
| 2026-05-06 18:28 | 0.99263 | 103.72895 | 7313 ft | 257 kts | 57° |
| 2026-05-06 18:29 | 1.00247 | 103.74388 | 7049 ft | 257 kts | 57° |
| 2026-05-06 18:29 | 1.01226 | 103.75879 | 6793 ft | 257 kts | 57° |
| 2026-05-06 18:29 | 1.02201 | 103.77376 | 6533 ft | 257 kts | 57° |
| 2026-05-06 18:29 | 1.03170 | 103.78869 | 6285 ft | 257 kts | 57° |
| 2026-05-06 18:30 | 1.04139 | 103.80369 | 6014 ft | 257 kts | 58° |
| 2026-05-06 18:30 | 1.05105 | 103.81869 | 5775 ft | 255 kts | 58° |
| 2026-05-06 18:30 | 1.06050 | 103.83339 | 5668 ft | 248 kts | 58° |
| 2026-05-06 18:30 | 1.06973 | 103.84775 | 5538 ft | 244 kts | 58° |
| 2026-05-06 18:31 | 1.07896 | 103.86211 | 5328 ft | 247 kts | 57° |
| 2026-05-06 18:31 | 1.08843 | 103.87656 | 5094 ft | 250 kts | 52° |
| 2026-05-06 18:31 | 1.10195 | 103.88709 | 4777 ft | 253 kts | 24° |
| 2026-05-06 18:31 | 1.11814 | 103.89451 | 4466 ft | 254 kts | 25° |
| 2026-05-06 18:32 | 1.13405 | 103.90190 | 4139 ft | 257 kts | 24° |
| 2026-05-06 18:32 | 1.15047 | 103.90919 | 3802 ft | 259 kts | 24° |
| 2026-05-06 18:32 | 1.16714 | 103.91639 | 3457 ft | 262 kts | 23° |
| 2026-05-06 18:32 | 1.18398 | 103.92357 | 3117 ft | 264 kts | 23° |
| 2026-05-06 18:33 | 1.20052 | 103.93058 | 2766 ft | 248 kts | 23° |
| 2026-05-06 18:33 | 1.21590 | 103.93701 | 2363 ft | 231 kts | 23° |
| 2026-05-06 18:33 | 1.23004 | 103.94299 | 2072 ft | 211 kts | 23° |
| 2026-05-06 18:33 | 1.24296 | 103.94848 | 1811 ft | 193 kts | 24° |
| 2026-05-06 18:34 | 1.25473 | 103.95349 | 1544 ft | 176 kts | 24° |
| 2026-05-06 18:34 | 1.26565 | 103.95813 | 1318 ft | 166 kts | 24° |
| 2026-05-06 18:34 | 1.27586 | 103.96247 | 1100 ft | 154 kts | 24° |
| 2026-05-06 18:34 | 1.28545 | 103.96669 | 826 ft | 141 kts | 25° |
| 2026-05-06 18:35 | 1.29391 | 103.97032 | 806 ft | 134 kts | 22° |
| 2026-05-06 18:35 | 1.30265 | 103.97383 | 635 ft | 135 kts | 22° |
| 2026-05-06 18:35 | 1.31145 | 103.97758 | 464 ft | 140 kts | 23° |
| 2026-05-06 18:35 | 1.32063 | 103.98158 | 251 ft | 147 kts | 22° |
| 2026-05-06 18:36 | 1.33007 | 103.98550 | 58 ft | 149 kts | 21° |
| 2026-05-06 18:36 | 1.33620 | 103.98802 | 30 ft | 137 kts | 22° |
| 2026-05-06 18:36 | 1.34601 | 103.99220 | 29 ft | 98 kts | 22° |
| 2026-05-06 18:36 | 1.35150 | 103.99450 | 29 ft | 63 kts | 22° |
| 2026-05-06 18:37 | 1.35513 | 103.99606 | 29 ft | 43 kts | 23° |
| 2026-05-06 18:37 | 1.35696 | 103.99664 | 29 ft | 41 kts | 7° |
| 2026-05-06 18:37 | 1.35892 | 103.99643 | 29 ft | 5 kts | 307° |
| 2026-05-06 18:37 | 1.35898 | 103.99631 | 29 ft | 0 kts | 294° |
| 2026-05-06 18:38 | 1.35905 | 103.99616 | 29 ft | 7 kts | 294° |
| 2026-05-06 18:38 | 1.35931 | 103.99545 | 29 ft | 13 kts | 289° |
| 2026-05-06 18:39 | 1.35900 | 103.99475 | 29 ft | 12 kts | 216° |
| 2026-05-06 18:39 | 1.35881 | 103.99397 | 29 ft | 12 kts | 271° |
| 2026-05-06 18:39 | 1.35866 | 103.99344 | 29 ft | 12 kts | 238° |
| 2026-05-06 18:40 | 1.35794 | 103.99249 | 29 ft | 7 kts | 227° |
| 2026-05-06 18:40 | 1.35748 | 103.99258 | 29 ft | 8 kts | 145° |
| 2026-05-06 18:40 | 1.35713 | 103.99285 | 29 ft | 1 kts | 142° |
| 2026-05-06 18:40 | 1.35711 | 103.99286 | 29 ft | 0 kts | 142° |